Stamford, NY (12167)

2:55 PM EDT on September 01, 2015 (GMT -0400)
Van Dyke Ave | | Change Station
CLOSE
Current Station
Personal Weather Station
Location: Stamford, NY
Elevation: 1940 ft
Nearby Weather Stations

Elev 1940 ft 42.42 °N, 74.62 °W | Updated 7 seconds ago

Mostly Cloudy
Mostly Cloudy
79.7 °F
Feels Like 82 °F
N
1.0
Wind Variable Wind from WSW
Gusts 3.0 mph

Today
High -- | Low -- °F
--% Chance of Precip.
Yesterday
High -- | Low -- °F
Precip. -- in
6:23 AM 7:32 PM
Waning Gibbous, 87% visible
Pressure 30.03 in
Visibility 10.0 miles
Clouds Few 4000 ft
Heat Index 82 °F
Dew Point 65 °F
Humidity 61%
Rainfall 0.00 in
Snow Depth Not available.
UV 6 out of 12
Pollen 9.30 out of 12
Air Quality Not available.
Flu Activity Not available.
METAR KALB 011851Z 25003KT 10SM FEW040 29/17 A3003 RMK AO2 SLP169 T02890172
Pressure 30.03 in
Visibility 10.0 miles
Clouds Few 4000 ft
Heat Index 82 °F
Dew Point 65 °F
Humidity 61%
Rainfall 0.00 in
Snow Depth Not available.
UV 6 out of 12
Pollen 9.30 out of 12
Air Quality Not available.
Flu Activity Not available.
METAR KALB 011851Z 25003KT 10SM FEW040 29/17 A3003 RMK AO2 SLP169 T02890172

10-Day Weather Forecast

×

Almanac

Astronomy

Sep. 01, 2015 Rise Set
Actual Time
Civil Twilight
Nautical Twilight
Astronomical Twilight
Moon
Length of Visible Light
Length of Day
Tomorrow will be .
, % of the Moon is Illuminated

Today's Extremes

State Highs State Lows

Community

WunderPhotos

Upload Photos

1,851,593 photos uploaded!

WunderBlogs® & News

Nearby

Air Quality

  Air Quality AQ Index Pollutant
Not available.

Snow Depth

Station Depth Elevation

Earthquake Activity

City Distance Mag. Time & Date
Minimum magnitude displayed is 2.5.

Coastal Water Temperatures

Place Temperature

Stations

Nearby Weather Stations

Station Location Temp. Windchill Dew Point Humidity Wind Precip. Elev Updated Type